createdAt,value
2017-07-14T00:01:40.074Z,16.93
2017-07-14T00:04:06.553Z,18.40
2017-07-14T00:06:32.979Z,18.50
2017-07-14T00:08:59.384Z,21.30
2017-07-14T00:11:26.515Z,15.77
2017-07-14T00:13:52.938Z,14.77
2017-07-14T00:16:19.361Z,19.33
2017-07-14T00:18:46.553Z,18.90
2017-07-14T00:21:13.753Z,19.00
2017-07-14T00:23:40.164Z,25.33
2017-07-14T00:26:06.553Z,16.63
2017-07-14T00:28:32.933Z,18.63
2017-07-14T00:30:59.357Z,15.83
2017-07-14T00:33:25.780Z,14.67
2017-07-14T00:35:52.174Z,15.97
2017-07-14T00:38:18.597Z,18.23
2017-07-14T00:40:45.014Z,17.73
2017-07-14T00:43:11.444Z,22.77
2017-07-14T00:45:37.864Z,21.03
2017-07-14T00:48:04.267Z,16.50
2017-07-14T00:50:30.680Z,18.20
2017-07-14T00:52:57.825Z,17.00
2017-07-14T00:55:24.965Z,26.30
2017-07-14T00:57:51.448Z,15.13
2017-07-14T01:00:17.847Z,15.50
2017-07-14T01:02:45.148Z,19.03
2017-07-14T01:05:11.600Z,18.57
2017-07-14T01:07:38.137Z,19.87
2017-07-14T01:10:05.346Z,16.63
2017-07-14T01:12:31.776Z,27.23
2017-07-14T01:14:58.150Z,31.87
2017-07-14T01:17:24.554Z,18.00
2017-07-14T01:19:51.024Z,20.10
2017-07-14T01:22:17.496Z,17.17
2017-07-14T01:24:44.629Z,16.03
2017-07-14T01:27:11.776Z,17.00
2017-07-14T01:29:38.957Z,19.97
2017-07-14T01:32:05.383Z,18.33
2017-07-14T01:34:32.538Z,18.00
2017-07-14T01:36:58.942Z,19.53
2017-07-14T01:39:26.159Z,14.57
2017-07-14T01:41:52.621Z,19.30
2017-07-14T01:44:19.065Z,19.87
2017-07-14T01:46:46.268Z,14.50
2017-07-14T01:49:12.721Z,21.60
2017-07-14T01:51:39.212Z,17.70
2017-07-14T01:54:05.685Z,17.73
2017-07-14T01:56:32.140Z,18.00
2017-07-14T01:58:58.645Z,14.13
2017-07-14T02:01:25.109Z,17.10
2017-07-14T02:03:51.541Z,17.37
2017-07-14T02:06:17.977Z,12.93
2017-07-14T02:08:44.490Z,14.40
2017-07-14T02:11:10.934Z,15.47
2017-07-14T02:13:37.467Z,13.97
2017-07-14T02:16:03.913Z,19.20
2017-07-14T02:18:30.369Z,17.40
2017-07-14T02:20:57.550Z,13.97
2017-07-14T02:23:24.003Z,16.27
2017-07-14T02:25:50.465Z,18.70
2017-07-14T02:28:17.682Z,19.00
2017-07-14T02:30:44.150Z,19.30
2017-07-14T02:33:10.592Z,16.17
2017-07-14T02:35:37.805Z,16.33
2017-07-14T02:38:04.256Z,19.23
2017-07-14T02:40:30.729Z,17.30
2017-07-14T02:42:57.178Z,16.70
2017-07-14T02:45:23.633Z,15.30
2017-07-14T02:47:50.083Z,19.17
2017-07-14T02:50:16.565Z,18.40
2017-07-14T02:52:43.028Z,16.50
2017-07-14T02:55:09.494Z,18.90
2017-07-14T02:57:35.929Z,17.07
2017-07-14T03:00:02.434Z,18.63
2017-07-14T03:02:28.932Z,18.63
2017-07-14T03:04:55.373Z,13.90
2017-07-14T03:07:21.904Z,15.60
2017-07-14T03:09:48.368Z,13.30
2017-07-14T03:12:14.857Z,14.20
2017-07-14T03:14:42.119Z,17.30
2017-07-14T03:17:08.616Z,15.70
2017-07-14T03:19:35.066Z,16.60
2017-07-14T03:22:02.344Z,18.27
2017-07-14T03:24:28.810Z,16.47
2017-07-14T03:26:55.261Z,18.37
2017-07-14T03:29:21.752Z,16.40
2017-07-14T03:31:48.201Z,17.20
2017-07-14T03:34:14.629Z,17.90
2017-07-14T03:36:41.179Z,14.07
2017-07-14T03:39:07.658Z,19.80
2017-07-14T03:41:34.885Z,15.00
2017-07-14T03:44:01.346Z,14.80
2017-07-14T03:46:28.623Z,13.90
2017-07-14T03:48:55.085Z,14.13
2017-07-14T03:51:21.517Z,14.83
2017-07-14T03:53:48.008Z,19.57
2017-07-14T03:56:14.460Z,15.07
2017-07-14T03:58:40.911Z,17.30
2017-07-14T04:01:07.364Z,14.63
2017-07-14T04:03:33.801Z,15.03
2017-07-14T04:06:00.224Z,16.30
2017-07-14T04:08:26.721Z,17.17
2017-07-14T04:10:53.128Z,17.07
2017-07-14T04:13:20.312Z,17.63
2017-07-14T04:15:46.773Z,21.77
2017-07-14T04:18:13.167Z,18.50
2017-07-14T04:20:39.568Z,18.90
2017-07-14T04:23:05.959Z,15.70
2017-07-14T04:25:32.377Z,20.83
2017-07-14T04:27:59.043Z,16.33
2017-07-14T04:30:25.466Z,16.03
2017-07-14T04:32:51.881Z,18.40
2017-07-14T04:35:18.279Z,19.73
2017-07-14T04:37:44.690Z,19.43
2017-07-14T04:40:11.112Z,19.33
2017-07-14T04:42:37.527Z,17.20
2017-07-14T04:45:03.990Z,17.70
2017-07-14T04:47:30.389Z,17.97
2017-07-14T04:49:56.800Z,22.10
2017-07-14T04:52:23.196Z,18.03
2017-07-14T04:54:49.604Z,18.20
2017-07-14T04:57:15.997Z,15.47
2017-07-14T04:59:42.398Z,21.63
2017-07-14T05:02:09.595Z,30.63
2017-07-14T05:04:35.984Z,24.47
2017-07-14T05:07:03.169Z,23.73
2017-07-14T05:09:29.588Z,15.27
2017-07-14T05:11:55.990Z,16.47
2017-07-14T05:14:23.198Z,20.43
2017-07-14T05:16:49.734Z,13.60
2017-07-14T05:19:16.149Z,13.50
2017-07-14T05:21:42.593Z,13.97
2017-07-14T05:24:09.006Z,17.30
2017-07-14T05:26:35.435Z,13.40
2017-07-14T05:29:01.839Z,16.47
2017-07-14T05:31:28.984Z,19.30
2017-07-14T05:33:55.396Z,19.63
2017-07-14T05:36:21.846Z,18.53
2017-07-14T05:38:48.253Z,19.00
2017-07-14T05:41:14.748Z,17.73
2017-07-14T05:43:41.192Z,17.30
2017-07-14T05:46:07.624Z,20.97
2017-07-14T05:48:34.004Z,14.67
2017-07-14T05:51:00.445Z,13.03
2017-07-14T05:53:26.909Z,14.30
2017-07-14T05:55:53.296Z,16.40
2017-07-14T05:58:19.701Z,16.43
2017-07-14T06:00:46.101Z,17.77
2017-07-14T06:03:13.273Z,14.43
2017-07-14T06:05:39.750Z,11.17
2017-07-14T06:08:06.156Z,13.40
2017-07-14T06:10:32.578Z,12.10
2017-07-14T06:12:58.993Z,15.80
2017-07-14T06:15:25.466Z,12.57
2017-07-14T06:17:51.873Z,12.83
2017-07-14T06:20:18.308Z,8.50
2017-07-14T06:22:44.713Z,10.80
2017-07-14T06:25:11.856Z,12.37
2017-07-14T06:27:38.384Z,6.30
2017-07-14T06:30:05.565Z,11.33
2017-07-14T06:32:31.942Z,11.13
2017-07-14T06:34:58.347Z,8.00
2017-07-14T06:37:24.763Z,9.43
2017-07-14T06:39:51.198Z,11.93
2017-07-14T06:42:17.602Z,9.43
2017-07-14T06:44:44.746Z,6.10
2017-07-14T06:47:11.908Z,8.93
2017-07-14T06:49:38.312Z,8.33
2017-07-14T06:52:04.717Z,12.50
2017-07-14T06:54:31.186Z,10.70
2017-07-14T06:56:57.586Z,11.57
2017-07-14T06:59:23.988Z,4.93
2017-07-14T07:01:50.418Z,12.00
2017-07-14T07:04:16.837Z,16.43
2017-07-14T07:06:43.244Z,10.03
2017-07-14T07:09:09.668Z,13.23
2017-07-14T07:11:36.111Z,9.87
2017-07-14T07:14:02.550Z,6.70
2017-07-14T07:16:29.022Z,20.50
2017-07-14T07:18:55.498Z,12.63
2017-07-14T07:21:21.892Z,5.90
2017-07-14T07:23:48.325Z,7.77
2017-07-14T07:26:14.722Z,12.60
2017-07-14T07:28:41.128Z,7.00
2017-07-14T07:31:07.538Z,10.33
2017-07-14T07:33:34.053Z,7.67
2017-07-14T07:36:00.438Z,9.47
2017-07-14T07:38:26.854Z,9.77
2017-07-14T07:40:53.267Z,10.57
2017-07-14T07:43:19.683Z,8.20
2017-07-14T07:45:46.076Z,4.77
2017-07-14T07:48:18.863Z,7.50
2017-07-14T07:50:45.259Z,7.23
2017-07-14T07:53:11.674Z,5.17
2017-07-14T07:55:38.126Z,5.90
2017-07-14T07:58:04.553Z,5.53
2017-07-14T08:00:31.421Z,7.67
2017-07-14T08:03:03.949Z,4.90
2017-07-14T08:05:30.365Z,5.63
2017-07-14T08:07:57.520Z,6.83
2017-07-14T08:10:23.964Z,10.10
2017-07-14T08:12:50.364Z,5.83
2017-07-14T08:15:18.002Z,6.07
2017-07-14T08:17:44.416Z,7.40
2017-07-14T08:20:10.856Z,12.67
2017-07-14T08:22:37.252Z,9.93
2017-07-14T08:25:03.668Z,6.57
2017-07-14T08:27:30.820Z,3.73
2017-07-14T08:29:58.025Z,8.10
2017-07-14T08:32:24.419Z,5.90
2017-07-14T08:34:50.852Z,8.80
2017-07-14T08:37:17.263Z,10.43
2017-07-14T08:39:44.468Z,3.00
2017-07-14T08:42:10.872Z,10.67
2017-07-14T08:44:37.280Z,8.13
2017-07-14T08:47:04.442Z,3.40
2017-07-14T08:49:31.615Z,9.43
2017-07-14T08:51:58.049Z,6.33
2017-07-14T08:54:24.481Z,7.00
2017-07-14T08:56:50.894Z,6.57
2017-07-14T08:59:17.370Z,4.40
2017-07-14T09:01:43.813Z,6.20
2017-07-14T09:04:10.223Z,5.80
2017-07-14T09:06:36.608Z,5.77
2017-07-14T09:09:03.069Z,6.97
2017-07-14T09:11:29.474Z,9.77
2017-07-14T09:13:55.946Z,3.23
2017-07-14T09:16:22.356Z,3.73
2017-07-14T09:18:49.527Z,8.93
2017-07-14T09:21:15.960Z,5.30
2017-07-14T09:23:42.364Z,12.03
2017-07-14T09:26:09.528Z,3.57
2017-07-14T09:28:36.662Z,5.30
2017-07-14T09:31:03.857Z,3.43
2017-07-14T09:33:30.275Z,5.13
2017-07-14T09:35:56.726Z,6.77
2017-07-14T09:38:23.102Z,6.33
2017-07-14T09:40:49.560Z,4.60
2017-07-14T09:43:16.007Z,12.23
2017-07-14T09:45:42.408Z,7.17
2017-07-14T09:48:10.277Z,4.57
2017-07-14T09:50:37.417Z,6.67
2017-07-14T09:53:03.828Z,7.03
2017-07-14T09:55:30.233Z,4.03
2017-07-14T09:57:56.617Z,6.83
2017-07-14T10:00:23.048Z,5.80
2017-07-14T10:02:49.445Z,8.83
2017-07-14T10:05:15.917Z,9.20
2017-07-14T10:07:42.319Z,6.03
2017-07-14T10:10:08.715Z,5.30
2017-07-14T10:12:35.088Z,8.97
2017-07-14T10:15:01.479Z,6.77
2017-07-14T10:17:27.885Z,5.80
2017-07-14T10:19:55.089Z,9.57
2017-07-14T10:22:21.501Z,8.00
2017-07-14T10:24:47.902Z,4.43
2017-07-14T10:27:15.052Z,5.40
2017-07-14T10:29:41.436Z,5.87
2017-07-14T10:32:07.891Z,5.80
2017-07-14T10:34:34.344Z,10.80
2017-07-14T10:37:01.472Z,3.47
2017-07-14T10:39:27.898Z,5.63
2017-07-14T10:41:54.293Z,11.30
2017-07-14T10:44:20.751Z,8.10
2017-07-14T10:46:47.176Z,2.23
2017-07-14T10:49:14.162Z,6.20
2017-07-14T10:55:10.808Z,5.33
2017-07-14T10:57:37.221Z,7.40
2017-07-14T11:00:03.644Z,6.13
2017-07-14T11:02:30.035Z,5.00
2017-07-14T11:04:57.249Z,3.70
2017-07-14T11:07:23.759Z,3.20
2017-07-14T11:09:51.145Z,3.37
2017-07-14T11:12:17.548Z,5.97
2017-07-14T11:14:43.935Z,4.93
2017-07-14T11:17:10.368Z,3.43
2017-07-14T11:19:36.755Z,6.33
2017-07-14T11:22:03.233Z,6.47
2017-07-14T11:24:30.395Z,5.30
2017-07-14T11:26:57.561Z,8.10
2017-07-14T11:29:23.961Z,6.40
2017-07-14T11:31:50.391Z,6.47
2017-07-14T11:34:16.817Z,5.20
2017-07-14T11:36:43.272Z,4.73
2017-07-14T11:39:09.684Z,6.13
2017-07-14T11:41:36.118Z,7.93
2017-07-14T11:44:02.540Z,17.87
2017-07-14T11:46:28.948Z,8.13
2017-07-14T11:48:55.320Z,6.10
2017-07-14T11:51:21.730Z,7.33
2017-07-14T11:53:48.137Z,6.70
2017-07-14T11:56:14.556Z,6.80
2017-07-14T11:58:40.961Z,22.10
2017-07-14T12:01:07.387Z,6.20
2017-07-14T12:03:33.789Z,6.53
2017-07-14T12:06:00.261Z,4.00
2017-07-14T12:08:26.692Z,4.90
2017-07-14T12:10:53.143Z,7.20
2017-07-14T12:13:20.332Z,5.53
2017-07-14T12:15:46.760Z,6.63
2017-07-14T12:18:13.156Z,7.87
2017-07-14T12:20:40.372Z,4.53
2017-07-14T12:23:06.798Z,6.23
2017-07-14T12:25:33.205Z,6.80
2017-07-14T12:27:59.598Z,9.63
2017-07-14T12:30:26.027Z,5.63
2017-07-14T12:32:52.450Z,3.87
2017-07-14T12:35:18.839Z,7.73
2017-07-14T12:37:45.241Z,4.77
2017-07-14T12:40:12.385Z,15.73
2017-07-14T12:42:39.603Z,7.10
2017-07-14T12:45:06.005Z,16.93
2017-07-14T12:47:32.425Z,8.40
2017-07-14T12:49:58.838Z,5.83
2017-07-14T12:52:25.992Z,3.60
2017-07-14T12:54:53.149Z,8.87
2017-07-14T12:57:19.555Z,3.07
2017-07-14T12:59:45.929Z,4.10
2017-07-14T13:02:12.328Z,5.77
2017-07-14T13:04:38.722Z,7.27
2017-07-14T13:07:05.153Z,5.97
2017-07-14T13:09:31.595Z,4.87
2017-07-14T13:11:58.074Z,9.57
2017-07-14T13:14:24.492Z,8.83
2017-07-14T13:16:57.081Z,8.27
2017-07-14T13:19:24.261Z,8.73
2017-07-14T13:21:50.640Z,6.07
2017-07-14T13:24:17.033Z,10.27
2017-07-14T13:26:43.432Z,7.07
2017-07-14T13:29:10.590Z,7.57
2017-07-14T13:31:37.729Z,4.37
2017-07-14T13:34:04.882Z,12.13
2017-07-14T13:36:32.054Z,8.30
2017-07-14T13:38:58.490Z,5.33
2017-07-14T13:41:24.909Z,11.47
2017-07-14T13:43:51.326Z,6.87
2017-07-14T13:46:18.490Z,4.83
2017-07-14T13:48:45.817Z,5.87
2017-07-14T13:51:12.966Z,5.80
2017-07-14T13:53:39.581Z,7.40
2017-07-14T13:56:06.026Z,7.13
2017-07-14T13:58:32.430Z,6.97
2017-07-14T14:00:58.835Z,7.57
2017-07-14T14:03:25.260Z,4.40
2017-07-14T14:05:52.422Z,6.67
2017-07-14T14:08:18.837Z,5.97
2017-07-14T14:10:45.982Z,3.20
2017-07-14T14:13:13.132Z,7.50
2017-07-14T14:15:40.274Z,3.83
2017-07-14T14:18:06.678Z,8.13
2017-07-14T14:20:33.076Z,4.60
2017-07-14T14:22:59.467Z,4.93
2017-07-14T14:25:25.872Z,4.63
2017-07-14T14:27:52.544Z,4.37
2017-07-14T14:30:19.687Z,6.10
2017-07-14T14:32:46.070Z,7.90
2017-07-14T14:35:12.487Z,2.63
2017-07-14T14:37:38.877Z,4.03
2017-07-14T14:40:05.281Z,4.10
2017-07-14T14:42:31.667Z,4.70
2017-07-14T14:44:58.815Z,9.40
2017-07-14T14:47:25.975Z,4.80
2017-07-14T14:49:52.369Z,4.60
2017-07-14T14:52:18.768Z,4.50
2017-07-14T14:54:45.222Z,3.43
2017-07-14T14:57:11.633Z,4.63
2017-07-14T14:59:38.053Z,5.90
2017-07-14T15:02:04.516Z,6.00
2017-07-14T15:04:30.921Z,3.93
2017-07-14T15:06:57.331Z,6.40
2017-07-14T15:09:24.506Z,3.03
2017-07-14T15:11:50.928Z,4.40
2017-07-14T15:14:17.312Z,11.70
2017-07-14T15:16:43.702Z,4.70
2017-07-14T15:19:10.109Z,9.13
2017-07-14T15:21:37.323Z,3.53
2017-07-14T15:24:04.493Z,3.40
2017-07-14T15:26:30.874Z,4.07
2017-07-14T15:28:57.320Z,3.70
2017-07-14T15:31:23.965Z,7.50
2017-07-14T16:17:31.448Z,9.03
2017-07-14T16:19:57.881Z,5.73
2017-07-14T16:22:24.296Z,7.77
2017-07-14T16:24:50.706Z,9.50
2017-07-14T16:27:17.101Z,3.40
2017-07-14T16:29:43.516Z,3.40
2017-07-14T16:32:09.919Z,7.10
2017-07-14T16:34:36.315Z,2.70
2017-07-14T16:37:02.713Z,6.00
2017-07-14T16:39:29.255Z,5.73
2017-07-14T16:41:55.666Z,3.83
2017-07-14T16:44:22.074Z,5.50
2017-07-14T16:46:48.498Z,4.13
2017-07-14T16:49:14.918Z,6.00
2017-07-14T16:51:42.072Z,4.27
2017-07-14T16:54:09.193Z,4.13
2017-07-14T16:56:35.592Z,4.70
2017-07-14T16:59:02.013Z,6.30
2017-07-14T17:01:28.413Z,4.50
2017-07-14T17:03:54.831Z,5.40
2017-07-14T17:06:21.227Z,10.83
2017-07-14T17:08:47.628Z,5.10
2017-07-14T17:11:14.771Z,3.50
2017-07-14T17:13:41.904Z,4.23
2017-07-14T17:16:08.310Z,2.13
2017-07-14T17:18:34.815Z,8.10
2017-07-14T17:21:01.216Z,5.13
2017-07-14T17:23:28.345Z,8.90
2017-07-14T17:25:54.726Z,4.40
2017-07-14T17:28:21.161Z,4.63
2017-07-14T17:30:47.569Z,3.20
2017-07-14T17:33:14.715Z,4.53
2017-07-14T17:35:41.891Z,2.90
2017-07-14T17:38:08.276Z,5.43
2017-07-14T17:40:34.680Z,11.13
2017-07-14T17:43:01.053Z,4.70
2017-07-14T17:45:27.533Z,5.37
2017-07-14T17:47:53.952Z,4.63
2017-07-14T17:50:20.348Z,5.23
2017-07-14T17:52:46.784Z,6.83
2017-07-14T17:55:13.224Z,2.80
2017-07-14T17:57:40.357Z,4.30
2017-07-14T18:00:07.545Z,4.80
2017-07-14T18:02:33.960Z,4.60
2017-07-14T18:05:01.180Z,4.97
2017-07-14T18:07:27.569Z,7.50
2017-07-14T18:09:53.978Z,3.93
2017-07-14T18:12:21.141Z,6.00
2017-07-14T18:14:48.293Z,2.17
2017-07-14T18:17:15.453Z,6.67
2017-07-14T18:19:41.836Z,6.10
2017-07-14T18:22:08.272Z,3.20
2017-07-14T18:24:34.813Z,10.53
2017-07-14T18:27:01.212Z,5.33
2017-07-14T18:29:27.621Z,12.83
2017-07-14T18:31:54.025Z,11.83
2017-07-14T18:34:21.211Z,8.33
2017-07-14T18:36:47.650Z,10.10
2017-07-14T18:39:14.065Z,5.40
2017-07-14T18:41:40.461Z,4.00
2017-07-14T18:44:06.891Z,7.20
2017-07-14T18:46:33.319Z,5.00
2017-07-14T18:48:59.706Z,8.17
2017-07-14T18:51:26.125Z,5.63
2017-07-14T18:53:52.553Z,2.57
2017-07-14T18:56:19.700Z,5.90
2017-07-14T18:58:46.513Z,6.63
2017-07-14T19:01:12.932Z,4.73
2017-07-14T19:03:39.347Z,7.07
2017-07-14T19:06:05.745Z,6.17
2017-07-14T19:08:32.124Z,3.20
2017-07-14T19:10:58.645Z,5.40
2017-07-14T19:13:25.044Z,4.90
2017-07-14T19:15:51.482Z,4.20
2017-07-14T19:18:17.934Z,6.27
2017-07-14T19:20:44.336Z,8.20
2017-07-14T19:23:11.473Z,6.00
2017-07-14T19:25:38.672Z,3.10
2017-07-14T19:28:05.108Z,5.67
2017-07-14T19:30:31.524Z,5.73
2017-07-14T19:32:57.943Z,3.57
2017-07-14T19:35:24.367Z,4.13
2017-07-14T19:37:51.521Z,8.03
2017-07-14T19:40:18.762Z,9.43
2017-07-14T19:42:45.909Z,7.10
2017-07-14T19:45:12.321Z,4.40
2017-07-14T19:47:38.737Z,4.97
2017-07-14T19:50:05.167Z,7.40
2017-07-14T19:52:31.582Z,6.13
2017-07-14T19:54:58.011Z,5.67
2017-07-14T19:57:24.450Z,13.17
2017-07-14T19:59:50.852Z,8.10
2017-07-14T20:02:17.987Z,6.73
2017-07-14T20:04:45.136Z,4.87
2017-07-14T20:07:11.559Z,2.83
2017-07-14T20:09:37.976Z,4.63
2017-07-14T20:12:04.412Z,6.70
2017-07-14T20:14:30.847Z,4.00
2017-07-14T20:16:57.267Z,7.30
2017-07-14T20:19:23.652Z,5.67
2017-07-14T20:21:50.805Z,11.83
2017-07-14T20:24:17.951Z,7.93
2017-07-14T20:26:45.078Z,3.53
2017-07-14T20:29:11.579Z,4.33
2017-07-14T20:31:37.964Z,6.33
2017-07-14T20:34:05.113Z,7.50
2017-07-14T20:36:32.280Z,6.03
2017-07-14T20:38:58.705Z,8.73
2017-07-14T20:41:25.105Z,7.47
2017-07-14T20:43:51.528Z,9.70
2017-07-14T20:46:17.921Z,3.67
2017-07-14T20:48:44.359Z,10.93
2017-07-14T20:51:10.808Z,10.97
2017-07-14T20:53:37.213Z,4.43
2017-07-14T20:56:03.624Z,3.80
2017-07-14T20:58:31.594Z,8.73
2017-07-14T21:00:58.730Z,6.77
2017-07-14T21:03:25.251Z,7.40
2017-07-14T21:05:51.654Z,5.10
2017-07-14T21:08:18.118Z,6.00
2017-07-14T21:10:44.520Z,6.90
2017-07-14T21:13:10.917Z,5.03
2017-07-14T21:15:38.050Z,6.60
2017-07-14T21:18:05.216Z,8.70
2017-07-14T21:20:31.649Z,6.53
2017-07-14T21:22:58.035Z,5.53
2017-07-14T21:25:24.441Z,11.90
2017-07-14T21:27:50.855Z,6.17
2017-07-14T21:30:17.325Z,6.23
2017-07-14T21:32:43.731Z,14.40
2017-07-14T21:35:10.143Z,7.07
2017-07-14T21:37:36.537Z,19.63
2017-07-14T21:40:02.953Z,5.70
2017-07-14T21:42:29.359Z,6.97
2017-07-14T21:44:55.760Z,16.27
2017-07-14T21:47:22.900Z,5.60
2017-07-14T21:49:49.732Z,5.27
2017-07-14T21:52:16.117Z,11.23
2017-07-14T21:54:42.529Z,6.87
2017-07-14T21:57:09.709Z,5.47
2017-07-14T21:59:36.115Z,10.47
2017-07-14T22:02:03.308Z,10.40
2017-07-14T22:04:29.744Z,6.50
2017-07-14T22:06:56.144Z,13.43
2017-07-14T22:09:22.616Z,7.93
2017-07-14T22:11:49.039Z,8.10
2017-07-14T22:14:15.445Z,15.33
2017-07-14T22:16:41.856Z,9.40
2017-07-14T22:19:09.008Z,5.13
2017-07-14T22:21:36.148Z,6.83
2017-07-14T22:24:02.551Z,4.90
2017-07-14T22:26:28.954Z,7.60
2017-07-14T22:28:55.378Z,5.90
2017-07-14T22:31:21.780Z,6.43
2017-07-14T22:33:49.246Z,6.90
2017-07-14T22:36:16.385Z,8.67
2017-07-14T22:38:42.780Z,8.93
2017-07-14T22:41:09.154Z,9.93
2017-07-14T22:43:36.311Z,7.10
2017-07-14T22:46:03.454Z,5.73
2017-07-14T22:48:30.598Z,4.80
2017-07-14T22:50:56.967Z,7.00
2017-07-14T22:53:23.397Z,4.70
2017-07-14T22:55:49.799Z,6.70
2017-07-14T22:58:16.915Z,6.10
2017-07-14T23:00:43.340Z,5.97
2017-07-14T23:03:09.780Z,8.90
2017-07-14T23:05:36.222Z,6.40
2017-07-14T23:08:02.636Z,7.70
2017-07-14T23:10:29.070Z,9.27
2017-07-14T23:12:55.573Z,5.07
2017-07-14T23:15:21.983Z,6.47
2017-07-14T23:17:49.158Z,5.73
2017-07-14T23:20:15.588Z,5.87
2017-07-14T23:22:41.995Z,5.83
2017-07-14T23:25:09.185Z,6.20
2017-07-14T23:27:35.599Z,5.80
2017-07-14T23:30:02.026Z,10.73
2017-07-14T23:32:28.431Z,6.50
2017-07-14T23:34:55.233Z,6.10
2017-07-14T23:37:22.494Z,9.13
2017-07-14T23:39:48.890Z,5.33
2017-07-14T23:42:15.297Z,6.57
2017-07-14T23:44:41.709Z,5.57
2017-07-14T23:47:08.105Z,5.70
2017-07-14T23:49:34.488Z,6.00
2017-07-14T23:52:00.879Z,7.03
2017-07-14T23:54:27.298Z,6.80
2017-07-14T23:56:53.719Z,7.67
2017-07-14T23:59:20.126Z,4.90
